Time;durP1;ratioP1;P1;durP2;ratioP2;P2;SDS_P1;SDS_P2;PMS_P1;PMS_P2;Temp;Humidity;BMP_temperature;BMP_pressure;BME280_temperature;BME280_humidity;BME280_pressure;Samples;Min_cycle;Max_cycle;Signal;HPM_P1;HPM_P2
2022/11/08 00:02:11;;;;;;;7.80;2.50;;;;;;;11.25;100.00;100908.75;5089626;28;20043;-70
2022/11/08 00:04:37;;;;;;;7.78;2.70;;;;;;;11.22;100.00;100909.97;5089533;28;20036;-71
2022/11/08 00:15:15;;;;;;;11.27;4.40;;;;;;;11.27;100.00;100906.72;5089784;28;20730;-71
2022/11/08 00:17:40;;;;;;;8.63;2.28;;;;;;;11.31;100.00;100913.28;5089248;28;20024;-71
2022/11/08 00:20:07;;;;;;;7.45;2.53;;;;;;;11.31;100.00;100903.44;5089377;28;20118;-70
2022/11/08 00:22:33;;;;;;;7.72;2.70;;;;;;;11.27;100.00;100907.53;5089067;28;20035;-71
2022/11/08 00:24:58;;;;;;;9.30;3.00;;;;;;;11.29;100.00;100907.31;5089197;28;20036;-71
2022/11/08 00:27:24;;;;;;;9.27;3.15;;;;;;;11.25;100.00;100909.59;5089287;28;20034;-71
2022/11/08 00:29:49;;;;;;;12.65;3.38;;;;;;;11.19;100.00;100894.38;5089378;28;20123;-70
2022/11/08 00:32:18;;;;;;;6.93;3.53;;;;;;;11.17;100.00;100896.41;5089191;28;20039;-70
2022/11/08 00:34:43;;;;;;;10.27;2.92;;;;;;;11.10;100.00;100895.56;5111497;28;20383;-71
2022/11/08 00:37:09;;;;;;;5.63;2.38;;;;;;;11.03;100.00;100881.34;5112757;28;20024;-71
2022/11/08 00:39:35;;;;;;;9.80;3.80;;;;;;;10.99;100.00;100888.13;5112842;28;20429;-71
2022/11/08 00:42:00;;;;;;;10.05;2.95;;;;;;;11.03;100.00;100892.03;5112630;28;20041;-70
2022/11/08 00:44:25;;;;;;;11.55;4.78;;;;;;;10.95;100.00;100891.19;5112571;28;20529;-71
2022/11/08 00:46:51;;;;;;;11.38;3.22;;;;;;;10.94;100.00;100894.88;5094287;28;20513;-71
2022/11/08 00:49:17;;;;;;;6.82;2.38;;;;;;;10.92;100.00;100888.91;5112307;28;20105;-71
2022/11/08 00:51:42;;;;;;;6.63;2.53;;;;;;;10.89;100.00;100881.28;5112572;28;20107;-71
2022/11/08 00:54:12;;;;;;;7.07;2.50;;;;;;;10.81;100.00;100872.63;5112432;28;20111;-70
2022/11/08 00:56:37;;;;;;;6.90;2.35;;;;;;;10.82;100.00;100879.59;5112244;28;20023;-71
2022/11/08 00:59:02;;;;;;;8.18;3.00;;;;;;;10.81;100.00;100885.97;5112372;28;20084;-71
2022/11/08 01:01:28;;;;;;;7.40;2.97;;;;;;;10.80;100.00;100873.66;5112145;28;20024;-70
2022/11/08 01:03:53;;;;;;;5.35;2.70;;;;;;;10.74;100.00;100869.91;5112345;28;20039;-70
2022/11/08 01:06:20;;;;;;;4.90;2.30;;;;;;;10.76;100.00;100873.22;5112444;28;20518;-71
2022/11/08 01:08:48;;;;;;;5.57;2.40;;;;;;;10.76;100.00;100870.56;5112410;28;20023;-70
2022/11/08 01:11:20;;;;;;;10.70;4.43;;;;;;;10.74;100.00;100875.25;5112055;28;20019;-70
2022/11/08 01:13:46;;;;;;;8.00;3.25;;;;;;;10.73;100.00;100870.94;5112309;28;20023;-70
2022/11/08 01:16:18;;;;;;;6.72;3.53;;;;;;;10.66;100.00;100870.09;5111929;28;20537;-71
2022/11/08 01:18:44;;;;;;;6.50;3.45;;;;;;;10.68;100.00;100868.06;5111994;28;20053;-71
2022/11/08 01:21:11;;;;;;;10.18;3.10;;;;;;;10.68;100.00;100876.06;5111785;28;20039;-70
2022/11/08 01:23:37;;;;;;;7.25;3.92;;;;;;;10.66;100.00;100875.41;5111884;28;20108;-70
2022/11/08 01:26:04;;;;;;;9.07;2.40;;;;;;;10.65;100.00;100868.44;5112206;28;20034;-70
2022/11/08 01:28:31;;;;;;;7.15;3.08;;;;;;;10.63;100.00;100873.97;5111546;28;20020;-70
2022/11/08 01:31:01;;;;;;;8.15;3.17;;;;;;;10.63;100.00;100870.47;5111607;28;20038;-70
2022/11/08 01:33:26;;;;;;;10.00;3.58;;;;;;;10.63;100.00;100867.81;5111681;28;20031;-70
2022/11/08 01:35:51;;;;;;;12.10;3.33;;;;;;;10.57;100.00;100856.09;5111582;28;20077;-71
2022/11/08 01:38:17;;;;;;;5.65;2.88;;;;;;;10.59;100.00;100859.41;5092889;28;20034;-71
2022/11/08 01:40:44;;;;;;;12.65;3.00;;;;;;;10.61;100.00;100857.38;5111486;28;20070;-71
2022/11/08 01:43:25;;;;;;;7.53;2.58;;;;;;;10.60;100.00;100846.88;5111308;28;20028;-71
2022/11/08 01:46:08;;;;;;;7.80;4.10;;;;;;;10.59;100.00;100847.91;5110303;28;20076;-71
2022/11/08 01:48:35;;;;;;;7.43;3.70;;;;;;;10.58;100.00;100839.06;5111295;28;20047;-70
2022/11/08 01:51:01;;;;;;;13.13;2.30;;;;;;;10.57;100.00;100836.59;5111471;28;20035;-70
2022/11/08 01:53:27;;;;;;;8.82;2.47;;;;;;;10.52;100.00;100835.34;5111118;28;20048;-70
2022/11/08 01:55:54;;;;;;;8.98;3.45;;;;;;;10.57;100.00;100831.28;5111073;28;20028;-71
2022/11/08 01:58:23;;;;;;;7.13;2.80;;;;;;;10.58;100.00;100824.91;5111392;28;20107;-70
2022/11/08 02:00:50;;;;;;;8.90;2.80;;;;;;;10.58;100.00;100825.72;5111116;28;20451;-71
2022/11/08 02:03:17;;;;;;;8.07;3.25;;;;;;;10.58;100.00;100827.56;5111038;28;20042;-71
2022/11/08 02:05:43;;;;;;;10.88;4.00;;;;;;;10.56;100.00;100811.78;5110948;28;20390;-70
2022/11/08 02:08:33;;;;;;;6.75;2.88;;;;;;;10.59;100.00;100805.25;5111490;28;20110;-71
2022/11/08 02:10:59;;;;;;;6.38;2.78;;;;;;;10.61;100.00;100804.03;5100611;28;20084;-71
2022/11/08 02:13:28;;;;;;;11.73;3.22;;;;;;;10.62;100.00;100799.50;5110820;28;20042;-71
2022/11/08 02:15:53;;;;;;;8.52;2.90;;;;;;;10.49;100.00;100782.41;5110775;28;20023;-70
2022/11/08 02:18:21;;;;;;;8.65;2.70;;;;;;;10.58;100.00;100795.56;5110852;28;20035;-71
2022/11/08 02:21:01;;;;;;;11.07;3.75;;;;;;;10.57;100.00;100791.28;5110676;28;20031;-71
2022/11/08 02:23:49;;;;;;;9.38;2.38;;;;;;;10.55;100.00;100790.63;5110613;28;20044;-71
2022/11/08 02:26:16;;;;;;;8.75;2.70;;;;;;;10.55;100.00;100791.47;5110689;28;20045;-70
2022/11/08 02:28:44;;;;;;;13.82;2.95;;;;;;;10.51;100.00;100779.56;5092012;28;20474;-71
2022/11/08 02:31:11;;;;;;;4.40;2.38;;;;;;;10.53;100.00;100781.00;5110411;28;20689;-70
2022/11/08 02:33:37;;;;;;;10.80;3.47;;;;;;;10.49;100.00;100771.75;5110512;28;20035;-70
2022/11/08 02:36:05;;;;;;;4.88;2.30;;;;;;;10.40;100.00;100767.63;5110551;28;20032;-70
2022/11/08 02:38:33;;;;;;;5.53;2.65;;;;;;;10.44;100.00;100771.50;5110271;28;20038;-70
2022/11/08 02:40:58;;;;;;;6.55;2.17;;;;;;;10.46;100.00;100760.66;5092121;28;20107;-71
2022/11/08 02:43:25;;;;;;;4.30;2.17;;;;;;;10.50;100.00;100767.22;5110394;28;20181;-71
2022/11/08 02:45:51;;;;;;;7.63;2.45;;;;;;;10.48;100.00;100762.09;5110288;28;20031;-71
2022/11/08 02:48:17;;;;;;;7.85;2.88;;;;;;;10.42;100.00;100746.88;5109965;28;20135;-70
2022/11/08 02:50:43;;;;;;;6.60;2.35;;;;;;;10.47;100.00;100757.78;5110066;28;20131;-70
2022/11/08 02:53:09;;;;;;;7.90;2.80;;;;;;;10.46;100.00;100761.47;5110029;28;20479;-71
2022/11/08 02:55:35;;;;;;;10.23;3.53;;;;;;;10.49;100.00;100747.75;5110055;28;20084;-71
2022/11/08 02:58:00;;;;;;;6.38;2.28;;;;;;;10.46;100.00;100734.81;5109643;28;20031;-70
2022/11/08 03:00:26;;;;;;;5.63;2.97;;;;;;;10.46;100.00;100728.66;5109766;28;20028;-71
2022/11/08 03:02:53;;;;;;;4.93;2.50;;;;;;;10.44;100.00;100722.69;5109956;28;20034;-70
2022/11/08 03:05:19;;;;;;;7.70;3.15;;;;;;;10.45;100.00;100738.50;5109997;28;20028;-70
2022/11/08 03:07:44;;;;;;;7.25;3.45;;;;;;;10.44;100.00;100733.38;5109840;28;20549;-70
2022/11/08 03:10:10;;;;;;;9.40;3.30;;;;;;;10.42;100.00;100722.06;5109886;28;20031;-70
2022/11/08 03:12:36;;;;;;;5.72;2.53;;;;;;;10.47;100.00;100723.13;5109544;28;20581;-71
2022/11/08 03:15:01;;;;;;;8.93;3.20;;;;;;;10.45;100.00;100706.53;5109704;28;20032;-71
2022/11/08 03:17:27;;;;;;;6.03;3.50;;;;;;;10.42;100.00;100703.41;5109776;28;20031;-71
2022/11/08 03:19:52;;;;;;;4.35;2.25;;;;;;;10.52;100.00;100711.84;5109549;28;20028;-71
2022/11/08 03:22:18;;;;;;;3.42;2.65;;;;;;;10.54;100.00;100709.81;5109567;28;20036;-70
2022/11/08 03:24:43;;;;;;;6.10;2.53;;;;;;;10.52;100.00;100706.53;5109605;28;20035;-70
2022/11/08 03:27:08;;;;;;;9.15;3.95;;;;;;;10.52;100.00;100693.19;5109396;28;20114;-71
2022/11/08 03:29:34;;;;;;;9.00;3.20;;;;;;;10.56;100.00;100686.44;5109400;28;20058;-71
2022/11/08 03:31:59;;;;;;;9.00;3.30;;;;;;;10.48;100.00;100678.63;5109438;28;20070;-70
2022/11/08 03:34:24;;;;;;;6.68;2.80;;;;;;;10.50;100.00;100687.22;5109309;28;20055;-71
2022/11/08 03:36:50;;;;;;;6.45;3.00;;;;;;;10.47;100.00;100682.31;5109391;28;20047;-70
2022/11/08 03:39:15;;;;;;;9.23;3.20;;;;;;;10.46;100.00;100678.81;5109282;28;20443;-71
2022/11/08 03:41:40;;;;;;;11.82;2.75;;;;;;;10.41;100.00;100670.59;5109153;28;20378;-71
2022/11/08 03:44:06;;;;;;;8.05;3.05;;;;;;;10.39;100.00;100677.97;5109229;28;21058;-70
2022/11/08 03:46:32;;;;;;;9.40;3.47;;;;;;;10.38;100.00;100671.00;5109528;28;20447;-71
2022/11/08 03:48:57;;;;;;;13.95;3.28;;;;;;;10.38;100.00;100665.66;5077161;28;20091;-70
2022/11/08 03:51:23;;;;;;;12.68;2.97;;;;;;;10.41;100.00;100667.94;5068490;28;20040;-71
2022/11/08 03:53:49;;;;;;;11.23;2.35;;;;;;;10.41;100.00;100651.13;5068598;28;20422;-70
2022/11/08 03:56:14;;;;;;;6.80;2.45;;;;;;;10.39;100.00;100648.63;5068498;28;20092;-71
2022/11/08 03:58:39;;;;;;;6.82;2.30;;;;;;;10.38;100.00;100639.00;5068495;28;20395;-71
2022/11/08 04:01:05;;;;;;;5.72;2.50;;;;;;;10.35;100.00;100642.09;5068373;28;20032;-70
2022/11/08 04:03:31;;;;;;;4.00;2.28;;;;;;;10.32;100.00;100637.13;5068840;28;20028;-70
2022/11/08 04:06:00;;;;;;;6.80;2.92;;;;;;;10.31;100.00;100615.00;5068464;28;20034;-71
2022/11/08 04:08:26;;;;;;;8.10;2.10;;;;;;;10.25;100.00;100618.44;5070346;28;20140;-70
2022/11/08 04:16:32;;;;;;;4.47;1.90;;;;;;;10.24;100.00;100614.13;5075341;28;20043;-70
2022/11/08 04:21:45;;;;;;;7.05;2.25;;;;;;;10.20;100.00;100583.56;5074882;28;20085;-71
2022/11/08 04:24:11;;;;;;;5.00;2.47;;;;;;;10.25;100.00;100585.63;5075047;28;20024;-70
2022/11/08 04:26:36;;;;;;;7.57;2.67;;;;;;;10.34;100.00;100594.28;5074930;28;20360;-71
2022/11/08 04:29:02;;;;;;;4.43;1.95;;;;;;;10.31;100.00;100592.84;5074861;28;20111;-71
2022/11/08 04:31:27;;;;;;;5.13;2.30;;;;;;;10.28;100.00;100593.25;5074849;28;20051;-70
2022/11/08 04:33:52;;;;;;;6.57;2.38;;;;;;;10.27;100.00;100594.22;5073524;28;20028;-71
2022/11/08 04:36:18;;;;;;;11.27;2.10;;;;;;;10.27;100.00;100588.91;5055501;28;20079;-70
2022/11/08 04:38:48;;;;;;;4.72;2.17;;;;;;;10.27;100.00;100579.09;5055687;28;20028;-70
2022/11/08 04:41:14;;;;;;;5.53;2.45;;;;;;;10.34;100.00;100579.09;5055620;28;20040;-71
2022/11/08 04:43:40;;;;;;;3.67;1.83;;;;;;;10.37;100.00;100576.03;5055596;28;20029;-71
2022/11/08 04:46:08;;;;;;;10.65;2.90;;;;;;;10.36;100.00;100562.94;5055687;28;20040;-70
2022/11/08 04:48:34;;;;;;;3.47;1.75;;;;;;;10.36;100.00;100574.41;5068692;28;20039;-71
2022/11/08 04:51:05;;;;;;;6.43;2.25;;;;;;;10.39;100.00;100560.66;5095820;28;20044;-71
2022/11/08 04:53:30;;;;;;;5.55;3.35;;;;;;;10.38;100.00;100563.56;5095757;28;20031;-70
2022/11/08 04:56:04;;;;;;;2.35;1.77;;;;;;;10.38;100.00;100555.56;5077477;28;20039;-71
2022/11/08 04:58:42;;;;;;;7.30;2.08;;;;;;;10.41;100.00;100558.63;5109842;28;20027;-70
2022/11/08 05:01:09;;;;;;;3.60;1.98;;;;;;;10.40;100.00;100550.81;5115129;28;20493;-71
2022/11/08 05:03:34;;;;;;;4.00;2.60;;;;;;;10.42;100.00;100546.09;5115264;28;20790;-71
2022/11/08 05:06:01;;;;;;;6.80;2.55;;;;;;;10.41;100.00;100547.16;5115279;28;20106;-70
2022/11/08 05:08:26;;;;;;;2.42;1.83;;;;;;;10.36;100.00;100538.94;5115095;28;20499;-70
2022/11/08 05:10:52;;;;;;;5.40;2.47;;;;;;;10.33;100.00;100531.34;5115062;28;20027;-71
2022/11/08 05:13:17;;;;;;;4.32;2.63;;;;;;;10.33;100.00;100536.69;5115137;28;20028;-71
2022/11/08 05:15:43;;;;;;;7.18;2.15;;;;;;;10.32;100.00;100535.84;5115139;28;20028;-71
2022/11/08 05:18:08;;;;;;;13.52;2.72;;;;;;;10.31;99.83;100528.88;5115315;28;20035;-71
2022/11/08 05:23:23;;;;;;;3.70;1.80;;;;;;;10.25;99.58;100519.00;5111773;28;20598;-71
2022/11/08 05:25:52;;;;;;;3.25;2.25;;;;;;;10.26;99.65;100518.78;5104368;28;20032;-70
2022/11/08 05:28:18;;;;;;;3.13;1.85;;;;;;;10.25;99.32;100516.34;5092128;28;20035;-70
2022/11/08 05:30:43;;;;;;;3.75;2.22;;;;;;;10.24;99.34;100517.34;5092132;28;20032;-70
2022/11/08 05:33:09;;;;;;;5.10;1.83;;;;;;;10.25;99.15;100527.81;5092109;28;20598;-70
2022/11/08 05:35:35;;;;;;;4.47;2.03;;;;;;;10.25;98.55;100516.34;5092014;28;20036;-71
2022/11/08 05:38:00;;;;;;;6.47;2.10;;;;;;;10.24;99.16;100517.34;5092143;28;20050;-70
2022/11/08 05:40:26;;;;;;;4.93;2.30;;;;;;;10.26;98.43;100517.97;5092052;28;20478;-70
2022/11/08 05:42:53;;;;;;;4.50;2.25;;;;;;;10.23;99.00;100515.72;5092353;28;20312;-71
2022/11/08 05:45:19;;;;;;;5.13;2.40;;;;;;;10.24;98.27;100496.88;5091962;28;20028;-71
2022/11/08 05:47:45;;;;;;;2.38;1.90;;;;;;;10.30;98.10;100503.25;5091864;28;21285;-71
2022/11/08 05:50:11;;;;;;;5.53;2.17;;;;;;;10.30;97.63;100506.72;5111164;28;20451;-70
2022/11/08 05:52:36;;;;;;;5.50;2.67;;;;;;;10.26;98.07;100510.78;5111534;28;20110;-71
2022/11/08 05:55:02;;;;;;;3.38;1.70;;;;;;;10.26;97.63;100504.63;5111242;28;20032;-71
2022/11/08 05:57:27;;;;;;;8.85;2.35;;;;;;;10.26;97.65;100496.63;5111243;28;20027;-70
2022/11/08 05:59:53;;;;;;;11.13;2.38;;;;;;;10.23;97.70;100507.72;5092794;28;20485;-71
2022/11/08 06:02:18;;;;;;;4.68;1.80;;;;;;;10.21;98.28;100510.56;5111350;28;20382;-70
2022/11/08 06:04:43;;;;;;;7.80;2.60;;;;;;;10.16;98.14;100507.69;5111324;28;20381;-70
2022/11/08 06:07:09;;;;;;;2.28;2.08;;;;;;;10.18;97.94;100507.50;5111427;28;20093;-70
2022/11/08 06:09:34;;;;;;;6.15;2.30;;;;;;;10.19;97.91;100504.66;5111035;28;20641;-70
2022/11/08 06:11:59;;;;;;;4.88;2.10;;;;;;;10.22;97.67;100498.09;5110889;28;20057;-71
2022/11/08 06:14:25;;;;;;;7.32;3.40;;;;;;;10.11;97.87;100483.50;5110900;28;20028;-70
2022/11/08 06:16:50;;;;;;;5.88;3.20;;;;;;;10.21;98.09;100499.09;5110777;28;20118;-71
2022/11/08 06:19:15;;;;;;;6.78;2.67;;;;;;;10.24;97.47;100498.69;5111036;28;20076;-71
2022/11/08 06:21:41;;;;;;;7.90;3.45;;;;;;;10.24;97.32;100486.19;5110453;28;20494;-71
2022/11/08 06:24:06;;;;;;;5.38;2.72;;;;;;;10.24;97.40;100493.34;5110652;28;20027;-71
2022/11/08 06:26:32;;;;;;;5.60;2.30;;;;;;;10.25;97.49;100498.50;5110479;28;20045;-70
2022/11/08 06:28:57;;;;;;;4.10;2.40;;;;;;;10.24;97.33;100494.19;5110586;28;20032;-70
2022/11/08 06:31:23;;;;;;;6.05;2.60;;;;;;;10.25;97.36;100511.00;5109867;28;20538;-71
2022/11/08 06:33:49;;;;;;;5.95;2.80;;;;;;;10.24;97.49;100512.84;5110357;28;20036;-71
2022/11/08 06:36:14;;;;;;;7.20;2.40;;;;;;;10.21;97.84;100504.44;5110397;28;20061;-70
2022/11/08 06:38:40;;;;;;;6.50;3.50;;;;;;;10.20;97.86;100511.59;5091923;28;20287;-70
2022/11/08 06:41:05;;;;;;;7.40;3.42;;;;;;;10.19;97.32;100506.47;5110182;28;20034;-70
2022/11/08 06:43:30;;;;;;;6.45;3.13;;;;;;;10.22;97.33;100500.75;5110240;28;20035;-71
2022/11/08 06:46:02;;;;;;;4.32;2.35;;;;;;;10.23;97.54;100510.38;5110182;28;20036;-70
2022/11/08 06:48:28;;;;;;;3.65;2.70;;;;;;;10.24;97.30;100504.84;5110003;28;20138;-70
2022/11/08 06:50:54;;;;;;;6.97;3.13;;;;;;;10.25;97.48;100508.34;5110169;28;20490;-70
2022/11/08 06:53:20;;;;;;;5.15;2.58;;;;;;;10.25;97.31;100517.16;5110093;28;20035;-71
2022/11/08 06:55:45;;;;;;;11.10;3.53;;;;;;;10.23;97.32;100495.19;5110034;28;20035;-71
2022/11/08 06:58:10;;;;;;;6.00;2.72;;;;;;;10.28;97.80;100502.63;5109959;28;20031;-71
2022/11/08 07:00:36;;;;;;;5.18;2.70;;;;;;;10.27;97.49;100498.28;5090107;28;20031;-71
2022/11/08 07:03:02;;;;;;;6.55;2.08;;;;;;;10.28;97.04;100499.97;5089948;28;20047;-70
2022/11/08 07:05:29;;;;;;;7.53;2.63;;;;;;;10.25;97.80;100490.50;5090232;28;20161;-70
2022/11/08 07:07:58;;;;;;;5.47;2.88;;;;;;;10.21;97.25;100493.75;5090157;28;20114;-71
2022/11/08 07:10:26;;;;;;;6.97;3.17;;;;;;;10.29;97.23;100507.75;5090129;28;20028;-71
2022/11/08 07:13:03;;;;;;;5.28;2.50;;;;;;;10.22;97.16;100492.75;5090146;28;20032;-70
2022/11/08 07:15:29;;;;;;;10.70;2.55;;;;;;;10.29;97.11;100504.25;5090133;28;20515;-70
2022/11/08 07:18:05;;;;;;;6.15;2.80;;;;;;;10.22;97.28;100504.22;5090118;28;20031;-70
2022/11/08 07:20:31;;;;;;;4.28;2.47;;;;;;;10.26;97.51;100515.31;5090540;28;20103;-70
2022/11/08 07:22:57;;;;;;;6.30;2.70;;;;;;;10.25;97.40;100514.47;5089720;28;20107;-70
2022/11/08 07:25:23;;;;;;;5.20;2.40;;;;;;;10.30;97.50;100516.59;5089884;28;20368;-70
2022/11/08 07:27:49;;;;;;;4.05;2.40;;;;;;;10.32;97.33;100514.50;5089923;28;20039;-70
2022/11/08 07:30:14;;;;;;;6.25;2.95;;;;;;;10.33;97.63;100518.84;5071612;28;20433;-66
2022/11/08 07:32:39;;;;;;;5.32;3.10;;;;;;;10.35;97.39;100515.94;5089962;28;20024;-66
2022/11/08 07:35:05;;;;;;;6.82;2.85;;;;;;;10.35;96.99;100508.78;5089875;28;20095;-66
2022/11/08 07:37:31;;;;;;;11.00;3.30;;;;;;;10.35;97.13;100508.78;5089859;28;20036;-66
2022/11/08 07:39:57;;;;;;;5.80;2.83;;;;;;;10.40;96.54;100505.50;5090008;28;20058;-67
2022/11/08 07:42:22;;;;;;;5.65;3.28;;;;;;;10.44;97.01;100504.06;5089569;28;20032;-67
2022/11/08 07:44:48;;;;;;;7.10;3.20;;;;;;;10.47;96.12;100503.66;5070566;28;20036;-68
2022/11/08 07:47:13;;;;;;;4.90;2.78;;;;;;;10.54;96.01;100515.16;5109156;28;20043;-67
2022/11/08 07:49:38;;;;;;;5.15;2.28;;;;;;;10.58;96.21;100513.72;5109356;28;20096;-67
2022/11/08 07:52:04;;;;;;;6.22;2.90;;;;;;;10.60;95.17;100493.00;5109131;28;20363;-67
2022/11/08 07:54:29;;;;;;;5.20;3.20;;;;;;;10.61;95.03;100494.66;5091057;28;20023;-67
2022/11/08 07:56:54;;;;;;;5.00;3.17;;;;;;;10.68;94.42;100502.63;5109311;28;20024;-67
2022/11/08 07:59:20;;;;;;;3.80;2.25;;;;;;;10.73;94.16;100505.50;5109346;28;20121;-67
2022/11/08 08:01:45;;;;;;;4.45;2.15;;;;;;;10.75;94.11;100498.94;5109334;28;20355;-68
2022/11/08 08:04:11;;;;;;;4.63;2.50;;;;;;;10.81;93.21;100499.97;5109094;28;20027;-67
2022/11/08 08:06:36;;;;;;;3.88;2.53;;;;;;;10.84;93.01;100509.41;5089141;28;20494;-66
2022/11/08 08:09:02;;;;;;;4.60;2.35;;;;;;;10.88;92.53;100507.97;5089651;28;20028;-67
2022/11/08 08:11:28;;;;;;;3.53;2.88;;;;;;;10.92;92.58;100501.19;5089747;28;20118;-67
2022/11/08 08:13:55;;;;;;;3.78;2.30;;;;;;;10.93;92.65;100498.31;5089552;28;20092;-66
2022/11/08 08:16:20;;;;;;;3.45;2.35;;;;;;;10.96;93.00;100500.56;5089615;28;20483;-67
2022/11/08 08:18:48;;;;;;;6.88;2.95;;;;;;;11.00;91.37;100500.97;5089475;28;20035;-67
2022/11/08 08:21:13;;;;;;;7.72;2.50;;;;;;;11.08;92.09;100499.91;5089513;28;20031;-67
2022/11/08 08:23:38;;;;;;;3.22;2.33;;;;;;;11.16;91.43;100502.34;5089571;28;20036;-66
2022/11/08 08:26:04;;;;;;;6.13;2.45;;;;;;;11.21;90.39;100502.56;5089748;28;20035;-67
2022/11/08 08:28:29;;;;;;;5.53;2.47;;;;;;;11.26;90.72;100508.09;5089591;28;20028;-67
2022/11/08 08:30:55;;;;;;;4.75;2.10;;;;;;;11.31;89.50;100502.94;5092615;28;20024;-67
2022/11/08 08:33:20;;;;;;;3.50;2.17;;;;;;;11.29;90.21;100501.50;5095671;28;20134;-67
2022/11/08 08:35:45;;;;;;;3.97;2.17;;;;;;;11.35;89.23;100508.69;5097004;28;20027;-67
2022/11/08 08:38:12;;;;;;;6.35;2.22;;;;;;;11.43;90.40;100515.66;5097598;28;20023;-67
2022/11/08 08:40:37;;;;;;;6.00;2.10;;;;;;;11.48;89.17;100513.19;5095485;28;20399;-67
2022/11/08 08:43:04;;;;;;;5.82;2.38;;;;;;;11.52;90.27;100517.06;5096899;28;20034;-67
2022/11/08 08:45:30;;;;;;;4.15;2.47;;;;;;;11.54;89.54;100531.84;5096532;28;20034;-67
2022/11/08 08:47:56;;;;;;;7.43;3.05;;;;;;;11.58;88.77;100541.09;5095959;28;20043;-64
2022/11/08 08:50:24;;;;;;;7.47;2.63;;;;;;;11.62;88.38;100528.94;5096247;28;20128;-66
2022/11/08 08:52:49;;;;;;;4.47;2.92;;;;;;;11.73;87.72;100530.09;5108469;28;20048;-66
2022/11/08 08:55:15;;;;;;;18.38;3.20;;;;;;;11.84;88.67;100524.13;5110482;28;20118;-66
2022/11/08 08:57:47;;;;;;;3.72;2.13;;;;;;;11.90;87.44;100527.81;5112653;28;20031;-66
2022/11/08 09:00:14;;;;;;;5.78;3.25;;;;;;;11.93;87.96;100514.03;5112544;28;20180;-66
2022/11/08 09:02:40;;;;;;;4.75;2.17;;;;;;;11.95;87.49;100511.16;5112512;28;20043;-66
2022/11/08 09:05:06;;;;;;;5.80;2.25;;;;;;;12.00;87.62;100495.28;5112422;28;20019;-67
2022/11/08 09:07:31;;;;;;;5.40;2.78;;;;;;;12.03;85.64;100494.88;5112417;28;20102;-66
2022/11/08 09:09:56;;;;;;;10.10;3.33;;;;;;;12.05;86.12;100506.97;5112359;28;20027;-66
2022/11/08 09:12:22;;;;;;;6.78;3.45;;;;;;;12.08;87.15;100500.38;5112345;28;20028;-66
2022/11/08 09:14:47;;;;;;;4.43;2.67;;;;;;;12.10;87.11;100502.81;5112229;28;20054;-66
2022/11/08 09:17:12;;;;;;;3.20;2.13;;;;;;;12.12;86.40;100490.06;5092409;28;20142;-66
2022/11/08 09:19:38;;;;;;;3.85;2.22;;;;;;;12.16;85.36;100478.72;5092602;28;20513;-67
2022/11/08 09:22:03;;;;;;;4.50;2.38;;;;;;;12.11;86.71;100459.84;5074248;28;20386;-66
2022/11/08 09:24:28;;;;;;;3.47;1.95;;;;;;;12.24;86.09;100481.16;5092710;28;20498;-67
2022/11/08 09:26:54;;;;;;;2.20;1.58;;;;;;;12.31;85.64;100485.59;5092634;28;20067;-66
2022/11/08 09:29:19;;;;;;;4.57;1.92;;;;;;;12.39;85.25;100493.38;5092441;28;20024;-66
2022/11/08 09:31:44;;;;;;;7.55;1.90;;;;;;;12.44;85.52;100489.03;5106052;28;20030;-66
2022/11/08 09:34:10;;;;;;;2.55;2.13;;;;;;;12.60;84.20;100495.69;5111992;28;20767;-66
2022/11/08 09:36:35;;;;;;;4.63;2.08;;;;;;;12.65;84.69;100479.81;5107983;28;20046;-69
2022/11/08 09:39:00;;;;;;;2.15;1.65;;;;;;;12.74;84.24;100488.34;5092394;28;20070;-70
2022/11/08 09:42:21;;;;;;;4.30;2.05;;;;;;;12.80;83.63;100478.63;5092188;28;20032;-69
2022/11/08 09:45:21;;;;;;;6.40;2.13;;;;;;;12.83;84.81;100487.03;4990061;28;20038;-70
2022/11/08 09:47:50;;;;;;;4.55;2.03;;;;;;;12.86;82.76;100491.97;5084688;28;20040;-70
2022/11/08 09:50:25;;;;;;;3.80;1.92;;;;;;;12.94;82.38;100493.50;5091972;28;20060;-69
2022/11/08 09:53:10;;;;;;;4.00;1.92;;;;;;;13.07;83.46;100496.06;5092081;28;20081;-69
2022/11/08 09:55:41;;;;;;;4.72;2.20;;;;;;;13.16;80.99;100489.38;5091172;28;20043;-69
2022/11/08 09:58:33;;;;;;;4.55;1.98;;;;;;;13.30;82.36;100491.94;5092083;28;20052;-69
2022/11/08 10:00:58;;;;;;;3.70;2.20;;;;;;;13.40;80.57;100491.41;5087159;28;20042;-69
2022/11/08 10:03:24;;;;;;;3.10;2.13;;;;;;;13.47;80.15;100501.00;5091812;28;20843;-69
2022/11/08 10:06:00;;;;;;;2.25;1.70;;;;;;;13.52;79.28;100509.19;5091105;28;20391;-69
2022/11/08 10:08:26;;;;;;;3.63;1.85;;;;;;;13.60;79.83;100508.09;5091689;28;20030;-69
2022/11/08 10:11:21;;;;;;;4.17;2.13;;;;;;;13.69;79.85;100512.06;5091650;28;20032;-69
2022/11/08 10:14:04;;;;;;;5.28;2.72;;;;;;;13.69;80.25;100498.66;5091724;28;20697;-69
2022/11/08 10:16:42;;;;;;;4.93;2.10;;;;;;;13.82;78.75;100498.50;5091641;28;20111;-69
2022/11/08 10:19:14;;;;;;;4.38;1.70;;;;;;;13.90;78.35;100493.88;5091392;28;20106;-70
2022/11/08 10:21:54;;;;;;;3.65;1.95;;;;;;;13.98;79.46;100504.28;5091183;28;20507;-69
2022/11/08 10:24:33;;;;;;;4.28;1.70;;;;;;;14.07;78.30;100496.72;5091343;28;20028;-69
2022/11/08 10:26:59;;;;;;;3.65;1.80;;;;;;;14.19;78.45;100508.31;5091580;28;20027;-69
2022/11/08 10:29:36;;;;;;;2.08;1.60;;;;;;;14.23;77.91;100512.19;5091472;28;20046;-69
2022/11/08 10:32:20;;;;;;;3.30;1.52;;;;;;;14.23;78.31;100512.19;5091264;28;20020;-69
2022/11/08 10:34:53;;;;;;;2.55;1.40;;;;;;;14.20;77.15;100515.28;5091270;28;20028;-69
2022/11/08 10:37:21;;;;;;;2.58;1.45;;;;;;;14.21;76.64;100511.59;5091310;28;20024;-69
2022/11/08 10:40:02;;;;;;;3.17;1.55;;;;;;;14.25;77.73;100518.97;5091204;28;20031;-69
2022/11/08 10:42:38;;;;;;;1.70;1.27;;;;;;;14.24;76.61;100516.50;5091168;28;20355;-69
2022/11/08 10:45:03;;;;;;;4.75;2.40;;;;;;;14.23;77.85;100522.91;5091171;28;20024;-69
2022/11/08 10:47:31;;;;;;;3.47;2.08;;;;;;;14.22;77.39;100513.22;5091089;28;20043;-69
2022/11/08 10:49:57;;;;;;;3.10;1.83;;;;;;;14.20;77.42;100509.94;5090805;28;20139;-69
2022/11/08 10:52:44;;;;;;;4.15;2.08;;;;;;;14.21;78.13;100504.34;5090944;28;20428;-69
2022/11/08 10:55:22;;;;;;;7.97;2.40;;;;;;;14.19;77.33;100511.00;5090810;28;20489;-69
2022/11/08 10:57:47;;;;;;;7.30;1.75;;;;;;;14.15;78.48;100520.56;5090863;28;20028;-69
2022/11/08 11:00:19;;;;;;;1.38;1.27;;;;;;;14.13;78.25;100504.69;5090836;28;20123;-71
2022/11/08 11:02:49;;;;;;;2.15;1.50;;;;;;;14.12;76.94;100508.41;5092668;28;20027;-71
2022/11/08 11:05:14;;;;;;;3.40;1.98;;;;;;;14.18;76.95;100514.72;5096525;28;20113;-70
2022/11/08 11:07:40;;;;;;;6.53;2.47;;;;;;;14.23;76.46;100513.00;5069280;28;20074;-69
2022/11/08 11:10:36;;;;;;;4.05;1.92;;;;;;;14.35;77.64;100510.31;5098251;28;20035;-69
2022/11/08 11:13:25;;;;;;;3.80;1.90;;;;;;;14.34;76.96;100489.09;5063850;28;20085;-69
2022/11/08 11:15:55;;;;;;;3.38;1.95;;;;;;;14.37;75.44;100502.06;5097719;28;20433;-70
2022/11/08 11:18:23;;;;;;;4.60;2.10;;;;;;;14.38;76.63;100484.91;5097925;28;20028;-70
2022/11/08 11:21:04;;;;;;;3.08;1.48;;;;;;;14.41;75.72;100484.47;5096878;28;20110;-71
2022/11/08 11:23:37;;;;;;;10.40;3.78;;;;;;;14.42;75.90;100483.41;5097525;28;20045;-72
2022/11/08 11:26:06;;;;;;;3.25;1.70;;;;;;;14.41;74.59;100471.06;5097412;28;20027;-67
2022/11/08 11:28:32;;;;;;;4.25;1.80;;;;;;;14.42;74.88;100457.38;5097760;28;20107;-67
2022/11/08 11:31:00;;;;;;;8.60;2.75;;;;;;;14.46;74.74;100455.03;5097959;28;20474;-67
2022/11/08 11:33:28;;;;;;;3.42;1.90;;;;;;;14.47;74.13;100449.47;5096448;28;20023;-67
2022/11/08 11:36:01;;;;;;;3.20;2.00;;;;;;;14.52;74.28;100470.25;5097575;28;20028;-67
2022/11/08 11:38:49;;;;;;;3.38;1.73;;;;;;;14.56;74.81;100455.31;5096139;28;20040;-67
2022/11/08 11:41:25;;;;;;;3.45;1.40;;;;;;;14.69;75.04;100451.59;5096851;28;20679;-67
2022/11/08 11:44:19;;;;;;;2.10;1.23;;;;;;;14.75;75.04;100445.31;5097482;28;20027;-67
2022/11/08 11:46:48;;;;;;;2.65;2.15;;;;;;;14.72;74.63;100445.75;5084570;28;20038;-67